Portada
METAR-TAF:

METAR-TAF

Aeropuertos :

Coffeyville, Kansas, Estados Unidos

latitud: 37-05-28N, longitud: 095-33-59W, altitud: 229 m

Observación

El informe se hizo hace 51 minutos, a las 05:52 UTC
Viento 7 kt del sureste
Temperatura 26°C
Humedad 65%
Presión 1012 hPa
Visibilidad: 16.1 km
Cielo despejado

METAR: KCFV 070552Z AUTO 14007KT 10SM CLR 26/19 A2989 RMK AO2 SLP114 T02610194 10333 20261 403500222 51008

Hora: 01:43 (06:43 UTC)


TAF: falta

Observaciones y pronósticos meteorológicos de más de 4000 aeropuertos (mensajes METAR y TAF).

Los puntos amarillos y rojos representan las estaciones disponibles.

Ponga el ratón en el punto deseado para ver el nombre de la estación.

Haga clic para ver las observaciones y los pronósticos meteorológicos.

Para cambiar el mapa : haga clic en los botones verdes con una cruz de color negro para hacer un zoom, en el botón verde con un guión para alejar o en las flechas verdes para mapas adyacentes.


METAR-TAF: